Time;durP1;ratioP1;P1;durP2;ratioP2;P2;SDS_P1;SDS_P2;PMS_P1;PMS_P2;Temp;Humidity;BMP_temperature;BMP_pressure;BME280_temperature;BME280_humidity;BME280_pressure;Samples;Min_cycle;Max_cycle;Signal;HPM_P1;HPM_P2
2024/03/26 00:02:03;;;;;;;4.43;3.10;;;5.20;99.90;;;;;;4989930;28;20050;-70
2024/03/26 00:04:29;;;;;;;7.85;3.92;;;5.20;99.90;;;;;;5005153;28;20528;-70
2024/03/26 00:06:56;;;;;;;6.72;4.38;;;5.20;99.90;;;;;;4998162;28;20038;-70
2024/03/26 00:09:22;;;;;;;8.52;5.53;;;5.20;99.90;;;;;;5011165;28;20076;-70
2024/03/26 00:11:49;;;;;;;6.53;3.72;;;5.20;99.90;;;;;;5012116;28;20496;-70
2024/03/26 00:14:15;;;;;;;9.23;5.30;;;5.20;99.90;;;;;;5012319;28;20042;-70
2024/03/26 00:16:41;;;;;;;7.78;4.40;;;5.10;99.90;;;;;;4963663;28;20104;-70
2024/03/26 00:19:07;;;;;;;9.30;4.68;;;5.20;99.90;;;;;;4979942;28;20048;-71
2024/03/26 00:21:33;;;;;;;8.50;4.80;;;5.10;99.90;;;;;;4995635;28;20072;-70
2024/03/26 00:23:59;;;;;;;3.33;2.08;;;5.10;99.90;;;;;;5012264;28;20376;-70
2024/03/26 00:26:25;;;;;;;7.88;3.60;;;5.20;99.90;;;;;;4995744;28;20391;-70
2024/03/26 00:28:51;;;;;;;8.70;4.13;;;5.10;99.90;;;;;;4995947;28;20041;-71
2024/03/26 00:31:17;;;;;;;8.45;5.20;;;5.10;99.90;;;;;;5012102;28;20041;-70
2024/03/26 00:33:44;;;;;;;8.00;5.03;;;5.20;99.90;;;;;;5011863;28;20135;-71
2024/03/26 00:36:10;;;;;;;13.45;6.38;;;5.10;99.90;;;;;;5011979;28;20490;-71
2024/03/26 00:38:36;;;;;;;9.38;5.30;;;5.10;99.90;;;;;;5011741;28;20057;-70
2024/03/26 00:41:02;;;;;;;4.70;3.55;;;5.10;99.90;;;;;;5011831;28;20069;-71
2024/03/26 00:43:28;;;;;;;4.70;3.55;;;5.10;99.90;;;;;;5011701;28;20038;-70
2024/03/26 00:45:54;;;;;;;9.38;4.40;;;5.10;99.90;;;;;;5011769;28;20041;-71
2024/03/26 00:48:20;;;;;;;5.13;4.10;;;5.20;99.90;;;;;;5011962;28;20037;-70
2024/03/26 00:50:46;;;;;;;5.78;4.35;;;5.20;99.90;;;;;;5011578;28;20052;-70
2024/03/26 00:53:12;;;;;;;4.38;4.00;;;5.20;99.90;;;;;;5011803;28;20045;-70
2024/03/26 00:55:38;;;;;;;6.65;4.07;;;5.20;99.90;;;;;;5011436;28;20521;-71
2024/03/26 00:58:05;;;;;;;7.30;5.05;;;5.10;99.90;;;;;;4995475;28;20042;-70
2024/03/26 01:00:31;;;;;;;5.68;4.05;;;5.20;99.90;;;;;;5011312;28;20038;-71
2024/03/26 01:02:57;;;;;;;7.88;4.80;;;5.20;99.90;;;;;;5011689;28;20042;-70
2024/03/26 01:05:23;;;;;;;6.32;5.72;;;5.20;99.90;;;;;;5011825;28;20046;-71
2024/03/26 01:07:49;;;;;;;6.30;4.72;;;5.20;99.90;;;;;;5011276;28;20046;-70
2024/03/26 01:10:15;;;;;;;8.05;5.60;;;5.20;99.90;;;;;;5011770;28;20053;-70
2024/03/26 01:12:41;;;;;;;5.05;4.28;;;5.20;99.90;;;;;;5011531;28;20042;-70
2024/03/26 01:15:08;;;;;;;4.90;4.45;;;5.20;99.90;;;;;;4978941;28;20562;-70
2024/03/26 01:17:33;;;;;;;7.07;3.05;;;5.10;99.90;;;;;;5011537;28;20387;-70
2024/03/26 01:20:00;;;;;;;11.63;6.25;;;5.10;99.90;;;;;;5011188;28;20050;-70
2024/03/26 01:22:26;;;;;;;3.85;3.53;;;5.00;99.90;;;;;;5011383;28;20042;-70
2024/03/26 01:24:52;;;;;;;10.70;4.90;;;5.00;99.90;;;;;;5011197;28;20076;-70
2024/03/26 01:27:18;;;;;;;7.07;4.78;;;4.90;99.90;;;;;;4994835;28;20480;-70
2024/03/26 01:29:44;;;;;;;6.22;3.55;;;4.90;99.90;;;;;;5010945;28;20403;-70
2024/03/26 01:32:10;;;;;;;5.90;2.95;;;4.80;99.90;;;;;;5011479;28;20046;-69
2024/03/26 01:34:36;;;;;;;7.65;3.65;;;4.70;99.90;;;;;;4994842;28;20491;-70
2024/03/26 01:37:02;;;;;;;5.40;4.93;;;4.70;99.90;;;;;;5011265;28;20487;-70
2024/03/26 01:39:28;;;;;;;3.92;3.35;;;4.60;99.90;;;;;;5011241;28;20080;-70
2024/03/26 01:41:54;;;;;;;8.02;4.72;;;4.60;99.90;;;;;;4994624;28;20045;-70
2024/03/26 01:44:21;;;;;;;7.85;5.35;;;4.50;99.90;;;;;;5011122;28;20046;-70
2024/03/26 01:46:47;;;;;;;2.85;2.65;;;4.60;99.90;;;;;;5010993;28;20340;-70
2024/03/26 01:49:16;;;;;;;5.38;3.47;;;4.50;99.90;;;;;;5011147;28;20442;-70
2024/03/26 01:51:45;;;;;;;6.72;5.00;;;4.50;99.90;;;;;;4994631;28;20428;-70
2024/03/26 01:54:12;;;;;;;6.20;4.68;;;4.50;99.90;;;;;;5011071;28;20045;-70
2024/03/26 01:56:39;;;;;;;7.53;5.35;;;4.60;99.90;;;;;;4978327;28;20101;-70
2024/03/26 01:59:06;;;;;;;8.50;3.45;;;4.60;99.90;;;;;;4994511;28;20037;-70
2024/03/26 02:01:33;;;;;;;7.80;4.90;;;4.70;99.90;;;;;;4994600;28;20123;-70
2024/03/26 02:03:59;;;;;;;6.50;4.93;;;4.70;99.90;;;;;;4994349;28;20050;-70
2024/03/26 02:06:26;;;;;;;6.22;4.82;;;4.70;99.90;;;;;;5010865;28;20049;-70
2024/03/26 02:08:55;;;;;;;4.10;3.78;;;4.70;99.90;;;;;;5010750;28;20037;-70
2024/03/26 02:11:21;;;;;;;5.13;3.55;;;4.70;99.90;;;;;;4978788;28;20451;-71
2024/03/26 02:13:47;;;;;;;6.13;4.47;;;4.80;99.90;;;;;;5010707;28;20100;-70
2024/03/26 02:16:13;;;;;;;5.53;4.70;;;4.70;99.90;;;;;;4994479;28;20495;-71
2024/03/26 02:18:39;;;;;;;8.13;5.22;;;4.70;99.90;;;;;;4978242;28;20042;-71
2024/03/26 02:21:05;;;;;;;5.90;4.72;;;4.70;99.80;;;;;;4994543;28;20038;-70
2024/03/26 02:23:31;;;;;;;1.80;1.70;;;4.60;99.80;;;;;;4994480;28;20408;-70
2024/03/26 02:25:58;;;;;;;6.88;4.65;;;4.60;99.90;;;;;;4994642;28;20041;-70
2024/03/26 02:28:24;;;;;;;9.95;4.88;;;4.70;99.80;;;;;;5010814;28;20034;-70
2024/03/26 02:30:50;;;;;;;4.97;4.53;;;4.70;99.80;;;;;;4994156;28;20046;-70
2024/03/26 02:33:16;;;;;;;11.90;4.13;;;4.60;99.80;;;;;;4996385;28;20423;-70
2024/03/26 02:35:42;;;;;;;6.57;5.13;;;4.70;99.80;;;;;;4997617;28;20045;-70
2024/03/26 02:38:07;;;;;;;5.40;3.80;;;4.70;99.70;;;;;;5014617;28;20395;-70
2024/03/26 02:40:33;;;;;;;5.63;3.28;;;4.70;99.70;;;;;;5014000;28;20441;-70
2024/03/26 02:43:00;;;;;;;6.38;4.82;;;4.60;99.70;;;;;;5013858;28;20038;-71
2024/03/26 02:45:27;;;;;;;5.70;4.90;;;4.60;99.70;;;;;;4997882;28;20053;-70
2024/03/26 02:47:53;;;;;;;7.53;3.85;;;4.60;99.80;;;;;;4997594;28;20049;-70
2024/03/26 02:50:19;;;;;;;7.22;5.20;;;4.60;99.80;;;;;;4981393;28;20046;-70
2024/03/26 02:52:45;;;;;;;7.47;3.17;;;4.60;99.80;;;;;;4997327;28;20479;-70
2024/03/26 02:55:11;;;;;;;6.22;4.45;;;4.60;99.70;;;;;;5013745;28;20183;-70
2024/03/26 02:57:37;;;;;;;6.68;5.18;;;4.60;99.80;;;;;;5013887;28;20045;-70
2024/03/26 03:00:05;;;;;;;7.10;3.95;;;4.60;99.70;;;;;;5013538;28;20148;-70
2024/03/26 03:02:32;;;;;;;4.55;3.08;;;4.60;99.70;;;;;;5013792;28;20415;-70
2024/03/26 03:04:58;;;;;;;5.07;4.28;;;4.50;99.60;;;;;;5013324;28;20038;-70
2024/03/26 03:07:24;;;;;;;5.78;3.78;;;4.60;99.70;;;;;;5013588;28;20042;-70
2024/03/26 03:09:50;;;;;;;7.85;4.80;;;4.60;99.60;;;;;;4997031;28;20483;-70
2024/03/26 03:12:16;;;;;;;6.28;3.58;;;4.60;99.70;;;;;;5013365;28;20377;-70
2024/03/26 03:14:42;;;;;;;12.65;4.50;;;4.60;99.60;;;;;;5013542;28;20132;-70
2024/03/26 03:17:08;;;;;;;4.68;3.10;;;4.60;99.50;;;;;;5013064;28;20057;-70
2024/03/26 03:19:34;;;;;;;6.22;3.47;;;4.60;99.50;;;;;;5013343;28;20042;-70
2024/03/26 03:22:00;;;;;;;6.63;4.60;;;4.60;99.50;;;;;;5013204;28;20041;-70
2024/03/26 03:24:26;;;;;;;3.05;2.85;;;4.60;99.50;;;;;;5013133;28;20140;-70
2024/03/26 03:26:53;;;;;;;7.65;4.85;;;4.50;99.50;;;;;;4980490;28;20049;-70
2024/03/26 03:29:19;;;;;;;7.65;4.00;;;4.50;99.60;;;;;;4997006;28;20045;-69
2024/03/26 03:31:45;;;;;;;4.05;3.28;;;4.60;99.60;;;;;;4996928;28;20394;-70
2024/03/26 03:34:11;;;;;;;4.88;4.47;;;4.50;99.60;;;;;;5012982;28;20050;-70
2024/03/26 03:36:37;;;;;;;7.97;3.25;;;4.50;99.50;;;;;;4996737;28;20487;-70
2024/03/26 03:39:04;;;;;;;5.75;3.85;;;4.60;99.60;;;;;;4996452;28;20056;-70
2024/03/26 03:41:31;;;;;;;7.57;3.92;;;4.60;99.50;;;;;;4996827;28;20042;-70
2024/03/26 03:43:57;;;;;;;4.72;3.75;;;4.60;99.40;;;;;;4979281;28;20116;-70
2024/03/26 03:46:23;;;;;;;3.63;3.40;;;4.60;99.40;;;;;;5013023;28;20052;-70
2024/03/26 03:48:49;;;;;;;6.18;3.15;;;4.50;99.30;;;;;;4996325;28;20587;-70
2024/03/26 03:51:15;;;;;;;4.40;3.72;;;4.60;99.40;;;;;;4964329;28;20052;-70
2024/03/26 03:53:41;;;;;;;6.53;3.72;;;4.50;99.40;;;;;;5012688;28;20496;-70
2024/03/26 03:56:07;;;;;;;4.85;3.53;;;4.60;99.30;;;;;;5012476;28;20053;-70
2024/03/26 03:58:33;;;;;;;6.03;3.40;;;4.60;99.30;;;;;;5012599;28;20041;-70
2024/03/26 04:00:59;;;;;;;6.13;4.80;;;4.60;99.20;;;;;;5005314;28;20049;-70
2024/03/26 04:03:25;;;;;;;4.47;3.08;;;4.60;99.20;;;;;;4976973;28;20554;-70
2024/03/26 04:05:51;;;;;;;5.93;4.13;;;4.60;99.10;;;;;;4975628;28;20034;-70
2024/03/26 04:08:17;;;;;;;7.05;3.17;;;4.70;99.10;;;;;;4992651;28;20057;-70
2024/03/26 04:10:46;;;;;;;2.33;2.17;;;4.60;99.10;;;;;;4992869;28;20050;-70
2024/03/26 04:13:12;;;;;;;4.45;3.50;;;4.60;99.00;;;;;;4992654;28;20042;-70
2024/03/26 04:15:39;;;;;;;8.38;3.97;;;4.70;99.00;;;;;;4976556;28;20053;-71
2024/03/26 04:18:06;;;;;;;4.15;3.60;;;4.70;99.00;;;;;;4992536;28;20061;-70
2024/03/26 04:20:33;;;;;;;5.72;4.00;;;4.70;98.90;;;;;;4992618;28;20049;-70
2024/03/26 04:22:59;;;;;;;3.17;2.85;;;4.80;99.20;;;;;;4976260;28;20129;-70
2024/03/26 04:25:25;;;;;;;5.90;3.50;;;4.80;98.80;;;;;;4992668;28;20047;-70
2024/03/26 04:27:51;;;;;;;7.10;4.30;;;4.80;98.90;;;;;;4960361;28;20061;-70
2024/03/26 04:30:17;;;;;;;4.90;4.32;;;4.80;98.90;;;;;;4992359;28;20034;-70
2024/03/26 04:32:43;;;;;;;6.47;3.92;;;4.80;98.80;;;;;;4960072;28;20054;-70
2024/03/26 04:35:12;;;;;;;3.90;3.63;;;4.80;98.80;;;;;;4959982;28;20046;-70
2024/03/26 04:37:38;;;;;;;5.45;4.05;;;4.80;98.80;;;;;;4976334;28;20057;-70
2024/03/26 04:40:05;;;;;;;6.13;3.78;;;4.80;98.70;;;;;;4959750;28;20050;-70
2024/03/26 04:42:32;;;;;;;8.13;4.75;;;4.80;98.70;;;;;;4992276;28;20047;-70
2024/03/26 04:44:58;;;;;;;4.13;3.72;;;4.80;98.80;;;;;;4959813;28;20381;-70
2024/03/26 04:47:25;;;;;;;7.10;4.15;;;4.70;98.70;;;;;;4976155;28;20041;-70
2024/03/26 04:49:51;;;;;;;4.75;4.32;;;4.70;98.70;;;;;;4960054;28;20061;-70
2024/03/26 04:52:17;;;;;;;9.30;5.05;;;4.70;98.70;;;;;;4959722;28;20069;-70
2024/03/26 04:54:43;;;;;;;4.68;3.05;;;4.70;98.70;;;;;;4976165;28;20408;-70
2024/03/26 04:57:10;;;;;;;9.13;3.90;;;4.70;98.70;;;;;;4991715;28;20050;-70
2024/03/26 04:59:36;;;;;;;4.32;3.90;;;4.70;98.70;;;;;;4992003;28;20050;-70
2024/03/26 05:02:02;;;;;;;6.43;4.30;;;4.70;98.70;;;;;;4992118;28;20042;-70
2024/03/26 05:04:28;;;;;;;6.43;3.78;;;4.60;98.70;;;;;;4992480;28;20041;-70
2024/03/26 05:06:54;;;;;;;4.93;4.22;;;4.60;98.70;;;;;;4992056;28;20078;-70
2024/03/26 05:09:20;;;;;;;5.60;3.95;;;4.60;99.20;;;;;;4959505;28;20547;-70
2024/03/26 05:11:46;;;;;;;8.70;4.65;;;4.60;98.90;;;;;;4975561;28;20043;-70
2024/03/26 05:14:12;;;;;;;6.25;4.05;;;4.50;98.90;;;;;;4991638;28;20038;-70
2024/03/26 05:16:38;;;;;;;4.65;3.30;;;4.50;98.90;;;;;;4991667;28;20042;-70
2024/03/26 05:19:04;;;;;;;5.45;3.33;;;4.50;98.90;;;;;;4975474;28;20049;-70
2024/03/26 05:21:30;;;;;;;6.03;4.78;;;4.50;99.00;;;;;;4975672;28;20047;-70
2024/03/26 05:23:56;;;;;;;5.50;3.40;;;4.50;99.10;;;;;;4975610;28;20042;-70
2024/03/26 05:26:22;;;;;;;2.60;2.33;;;4.50;99.00;;;;;;4959245;28;20373;-70
2024/03/26 05:28:49;;;;;;;3.75;3.50;;;4.40;99.10;;;;;;4959470;28;20484;-70
2024/03/26 05:31:19;;;;;;;6.38;3.72;;;4.40;99.10;;;;;;4943687;28;20045;-70
2024/03/26 05:33:46;;;;;;;;;;;4.40;99.10;;;;;;4975690;28;20061;-70
2024/03/26 05:36:13;;;;;;;4.72;3.92;;;4.40;99.10;;;;;;4991665;28;19925;-70
2024/03/26 05:38:40;;;;;;;5.10;4.00;;;4.30;99.20;;;;;;4991661;28;20488;-70
2024/03/26 05:41:06;;;;;;;6.07;3.20;;;4.40;99.20;;;;;;4975177;28;20038;-70
2024/03/26 05:43:33;;;;;;;4.63;3.53;;;4.30;99.20;;;;;;4975483;28;20034;-70
2024/03/26 05:45:59;;;;;;;8.57;3.25;;;4.40;99.30;;;;;;4991456;28;20035;-70
2024/03/26 05:48:25;;;;;;;5.90;5.25;;;4.40;99.30;;;;;;4991177;28;20116;-70
2024/03/26 05:50:52;;;;;;;4.72;3.72;;;4.40;99.20;;;;;;4991491;28;20069;-70
2024/03/26 05:53:21;;;;;;;4.68;3.97;;;4.40;99.20;;;;;;4991175;28;20061;-70
2024/03/26 05:55:48;;;;;;;6.57;3.95;;;4.50;99.20;;;;;;4975170;28;20424;-70
2024/03/26 05:58:14;;;;;;;4.53;3.35;;;4.50;99.10;;;;;;4975068;28;20050;-70
2024/03/26 06:00:40;;;;;;;6.63;3.38;;;4.50;99.10;;;;;;4975739;28;20088;-70
2024/03/26 06:03:06;;;;;;;5.10;4.00;;;4.60;99.10;;;;;;4975581;28;20054;-70
2024/03/26 06:05:32;;;;;;;5.68;3.70;;;4.70;99.10;;;;;;4989071;28;20491;-70
2024/03/26 06:07:58;;;;;;;5.50;3.65;;;4.60;99.00;;;;;;4996260;28;20033;-71
2024/03/26 06:10:24;;;;;;;4.63;3.40;;;4.70;98.90;;;;;;5014684;28;20392;-70
2024/03/26 06:12:50;;;;;;;4.43;3.85;;;4.70;98.80;;;;;;4981811;28;20141;-70
2024/03/26 06:15:16;;;;;;;6.93;3.22;;;4.80;98.70;;;;;;4997940;28;20038;-71
2024/03/26 06:17:43;;;;;;;3.67;3.38;;;4.80;98.60;;;;;;5014594;28;20093;-70
2024/03/26 06:20:10;;;;;;;9.30;4.15;;;4.90;98.50;;;;;;5014091;28;20042;-70
2024/03/26 06:22:36;;;;;;;4.57;2.47;;;5.00;98.50;;;;;;4998416;28;20041;-70
2024/03/26 06:25:02;;;;;;;7.47;4.43;;;5.10;98.50;;;;;;4981919;28;20046;-70
2024/03/26 06:27:28;;;;;;;5.63;5.13;;;5.20;98.30;;;;;;4997923;28;20041;-70
2024/03/26 06:29:54;;;;;;;6.25;3.70;;;5.30;98.20;;;;;;5014391;28;20065;-69
2024/03/26 06:32:20;;;;;;;5.28;4.07;;;5.40;97.80;;;;;;4997635;28;20145;-70
2024/03/26 06:34:47;;;;;;;3.22;2.10;;;5.50;97.60;;;;;;5014172;28;20045;-70
2024/03/26 06:37:13;;;;;;;3.88;1.90;;;5.60;97.30;;;;;;4997617;28;20049;-70
2024/03/26 06:39:39;;;;;;;2.90;2.28;;;5.70;96.90;;;;;;5014188;28;20048;-70
2024/03/26 06:42:06;;;;;;;5.40;3.13;;;5.80;97.10;;;;;;5014154;28;20038;-69
2024/03/26 06:44:32;;;;;;;6.53;2.50;;;5.80;96.80;;;;;;5013836;28;20045;-69
2024/03/26 06:46:58;;;;;;;4.47;3.35;;;5.90;97.00;;;;;;5013992;28;20034;-69
2024/03/26 06:49:24;;;;;;;4.90;4.07;;;6.00;96.70;;;;;;5013706;28;20056;-70
2024/03/26 06:51:50;;;;;;;8.75;3.85;;;6.10;96.90;;;;;;5013916;28;20041;-70
2024/03/26 06:54:17;;;;;;;6.93;3.38;;;6.20;96.80;;;;;;4981147;28;20049;-70
2024/03/26 06:56:43;;;;;;;3.92;3.53;;;6.30;96.70;;;;;;4997309;28;20054;-70
2024/03/26 06:59:10;;;;;;;5.53;4.20;;;6.30;96.60;;;;;;4997482;28;20046;-69
2024/03/26 07:01:36;;;;;;;5.15;3.80;;;6.40;96.70;;;;;;4996981;28;20050;-69
2024/03/26 07:04:03;;;;;;;7.13;4.43;;;6.60;96.70;;;;;;4981086;28;20053;-70
2024/03/26 07:06:30;;;;;;;6.78;3.88;;;6.70;96.60;;;;;;5013490;28;20042;-70
2024/03/26 07:08:57;;;;;;;3.92;2.50;;;7.10;96.80;;;;;;5013570;28;20123;-70
2024/03/26 07:11:24;;;;;;;3.85;2.63;;;7.60;96.00;;;;;;4981003;28;20049;-70
2024/03/26 07:13:50;;;;;;;4.20;2.30;;;8.10;95.00;;;;;;4980738;28;20050;-70
2024/03/26 07:16:16;;;;;;;4.10;3.20;;;8.70;94.70;;;;;;5013103;28;20057;-70
2024/03/26 07:18:42;;;;;;;5.35;3.00;;;9.30;94.10;;;;;;5013044;28;20049;-70
2024/03/26 07:21:08;;;;;;;3.35;3.05;;;9.50;91.80;;;;;;5013352;28;20503;-70
2024/03/26 07:23:34;;;;;;;5.47;4.18;;;9.80;91.80;;;;;;4980487;28;20514;-70
2024/03/26 07:26:00;;;;;;;3.97;3.28;;;9.90;90.80;;;;;;4996940;28;20069;-70
2024/03/26 07:28:26;;;;;;;3.15;2.42;;;9.80;90.00;;;;;;5012859;28;20561;-70
2024/03/26 07:30:52;;;;;;;5.57;2.95;;;9.90;90.90;;;;;;5013273;28;20053;-70
2024/03/26 07:33:18;;;;;;;3.72;3.10;;;10.20;90.80;;;;;;5012798;28;20144;-70
2024/03/26 07:35:44;;;;;;;4.40;2.35;;;10.60;90.60;;;;;;4980637;28;20049;-70
2024/03/26 07:38:10;;;;;;;4.90;3.92;;;10.70;89.10;;;;;;4980494;28;20045;-70
2024/03/26 07:40:36;;;;;;;6.10;3.60;;;10.90;88.00;;;;;;5012587;28;20042;-70
2024/03/26 07:43:03;;;;;;;5.13;2.92;;;11.10;88.40;;;;;;4996586;28;20045;-70
2024/03/26 07:45:30;;;;;;;3.35;2.95;;;11.40;86.30;;;;;;5012599;28;20038;-70
2024/03/26 07:47:56;;;;;;;3.90;2.40;;;11.50;86.20;;;;;;5012715;28;20041;-71
2024/03/26 07:50:22;;;;;;;3.85;2.50;;;11.70;84.20;;;;;;4964240;28;20111;-71
2024/03/26 07:52:51;;;;;;;2.72;2.50;;;11.70;85.30;;;;;;5012708;28;20046;-71
2024/03/26 07:55:17;;;;;;;4.57;2.88;;;11.80;84.40;;;;;;5012740;28;20042;-70
2024/03/26 07:57:43;;;;;;;6.28;3.55;;;11.90;83.70;;;;;;4996184;28;20172;-71
2024/03/26 08:00:11;;;;;;;2.83;2.58;;;12.20;80.70;;;;;;5012544;28;20383;-71
2024/03/26 08:02:37;;;;;;;2.20;2.00;;;12.30;83.00;;;;;;5012494;28;20061;-70
2024/03/26 08:05:04;;;;;;;3.92;2.25;;;12.60;81.30;;;;;;4964172;28;20061;-70
2024/03/26 08:07:30;;;;;;;3.42;2.15;;;12.50;80.30;;;;;;4996259;28;20376;-71
2024/03/26 08:09:56;;;;;;;4.85;1.67;;;12.20;79.90;;;;;;5012326;28;20038;-71
2024/03/26 08:12:22;;;;;;;3.60;2.45;;;12.20;81.40;;;;;;4995888;28;20100;-71
2024/03/26 08:14:49;;;;;;;2.40;2.10;;;12.10;81.20;;;;;;4964368;28;20038;-71
2024/03/26 08:17:15;;;;;;;3.33;2.53;;;12.20;81.50;;;;;;5012431;28;20034;-71
2024/03/26 08:19:41;;;;;;;4.57;2.42;;;12.40;79.90;;;;;;4995790;28;20502;-71
2024/03/26 08:22:07;;;;;;;2.75;2.55;;;12.30;79.50;;;;;;5012248;28;20042;-71
2024/03/26 08:24:33;;;;;;;3.83;3.22;;;12.20;78.70;;;;;;4979501;28;20116;-70
2024/03/26 08:26:59;;;;;;;4.50;3.13;;;12.00;78.30;;;;;;5012189;28;20053;-71
2024/03/26 08:29:26;;;;;;;2.15;1.83;;;11.70;79.60;;;;;;5011809;28;20041;-70
2024/03/26 08:31:52;;;;;;;4.68;3.00;;;11.70;80.20;;;;;;4995464;28;20040;-71
2024/03/26 08:34:18;;;;;;;4.10;3.70;;;11.90;79.10;;;;;;5012076;28;20092;-71
2024/03/26 08:36:44;;;;;;;3.75;2.45;;;12.20;78.40;;;;;;5011710;28;20050;-71
2024/03/26 08:39:13;;;;;;;3.28;3.08;;;12.10;79.10;;;;;;4995840;28;20042;-71
2024/03/26 08:41:39;;;;;;;1.85;1.52;;;12.30;77.90;;;;;;4995730;28;20104;-71
2024/03/26 08:44:06;;;;;;;6.05;3.35;;;12.50;78.40;;;;;;5012130;28;20406;-71
2024/03/26 08:46:32;;;;;;;5.60;3.13;;;12.40;76.70;;;;;;5011839;28;20537;-71
2024/03/26 08:49:01;;;;;;;3.05;2.85;;;12.20;77.60;;;;;;5012152;28;20030;-71
2024/03/26 08:51:29;;;;;;;5.40;3.58;;;12.20;78.40;;;;;;5011791;28;20052;-71
2024/03/26 08:53:56;;;;;;;4.55;2.15;;;12.20;77.40;;;;;;5011737;28;20053;-71
2024/03/26 08:56:22;;;;;;;6.43;3.25;;;12.10;77.70;;;;;;4995388;28;20065;-70
2024/03/26 08:58:52;;;;;;;4.40;3.40;;;12.20;77.70;;;;;;5011568;28;20050;-71
2024/03/26 09:01:18;;;;;;;4.68;3.10;;;12.20;77.70;;;;;;5011499;28;20050;-71
2024/03/26 09:03:44;;;;;;;5.40;3.05;;;12.40;78.40;;;;;;5011356;28;20038;-71
2024/03/26 09:06:10;;;;;;;4.32;3.13;;;12.50;77.40;;;;;;5011595;28;20040;-71
2024/03/26 09:08:36;;;;;;;3.88;2.95;;;12.60;77.00;;;;;;5011323;28;20042;-71
2024/03/26 09:11:03;;;;;;;5.50;4.32;;;12.80;78.10;;;;;;5011511;28;20037;-71
2024/03/26 09:13:30;;;;;;;7.13;3.83;;;12.80;76.50;;;;;;4995204;28;20403;-71
2024/03/26 09:15:56;;;;;;;3.88;1.95;;;13.20;76.90;;;;;;5011394;28;20503;-71
2024/03/26 09:18:22;;;;;;;3.40;1.90;;;13.40;76.70;;;;;;4995178;28;20072;-71
2024/03/26 09:20:48;;;;;;;8.43;3.50;;;14.00;75.70;;;;;;5011083;28;20419;-71
2024/03/26 09:23:14;;;;;;;3.05;2.33;;;14.30;73.20;;;;;;5011437;28;20048;-71
2024/03/26 09:25:41;;;;;;;5.13;3.17;;;14.40;74.40;;;;;;4978762;28;20475;-71
2024/03/26 09:28:07;;;;;;;3.03;2.72;;;14.80;73.10;;;;;;5011480;28;20045;-71
2024/03/26 09:30:33;;;;;;;3.90;2.90;;;15.00;72.70;;;;;;5011312;28;20416;-70
2024/03/26 09:33:00;;;;;;;5.20;2.25;;;15.10;72.10;;;;;;5011354;28;20054;-71
2024/03/26 09:35:26;;;;;;;4.78;3.03;;;15.10;72.60;;;;;;5011498;28;20049;-71
2024/03/26 09:37:52;;;;;;;3.42;3.13;;;15.20;71.50;;;;;;4995025;28;20068;-70
2024/03/26 09:40:18;;;;;;;4.85;2.95;;;15.10;72.00;;;;;;4978714;28;20046;-70
2024/03/26 09:42:43;;;;;;;4.18;2.30;;;15.10;71.20;;;;;;4980080;28;20054;-71
2024/03/26 09:45:13;;;;;;;4.68;2.65;;;14.90;71.80;;;;;;4999075;28;20053;-71
2024/03/26 09:47:46;;;;;;;4.68;2.60;;;14.80;71.90;;;;;;5015139;28;20041;-70
2024/03/26 09:50:14;;;;;;;5.13;2.53;;;14.70;72.30;;;;;;5015186;28;20049;-71
2024/03/26 09:52:46;;;;;;;3.90;2.75;;;14.70;72.00;;;;;;4998770;28;20050;-70
2024/03/26 09:55:14;;;;;;;3.92;2.90;;;14.70;73.10;;;;;;5015145;28;20057;-71
2024/03/26 09:57:42;;;;;;;5.80;2.97;;;14.80;72.00;;;;;;5014848;28;20141;-71
2024/03/26 10:00:09;;;;;;;4.60;2.72;;;14.70;72.10;;;;;;5015102;28;20507;-70
2024/03/26 10:02:37;;;;;;;3.08;2.55;;;14.90;72.50;;;;;;5014948;28;20522;-71
2024/03/26 10:05:03;;;;;;;3.42;3.13;;;15.10;72.90;;;;;;5015169;28;20049;-71
2024/03/26 10:07:30;;;;;;;7.60;2.92;;;15.50;72.40;;;;;;5015012;28;20104;-71
2024/03/26 10:09:56;;;;;;;4.20;2.67;;;15.60;70.00;;;;;;5014794;28;20053;-70
2024/03/26 10:12:22;;;;;;;3.70;2.60;;;15.80;71.10;;;;;;4998518;28;20463;-71
2024/03/26 10:14:48;;;;;;;4.05;3.42;;;16.10;70.80;;;;;;5014673;28;20038;-71
2024/03/26 10:17:14;;;;;;;3.10;2.78;;;16.50;68.80;;;;;;5014846;28;20391;-71
2024/03/26 10:19:40;;;;;;;2.67;2.22;;;16.90;67.70;;;;;;4998387;28;20053;-71
2024/03/26 10:22:15;;;;;;;3.53;2.67;;;16.70;68.10;;;;;;5014709;28;20050;-71
2024/03/26 10:24:42;;;;;;;3.15;2.33;;;16.60;68.30;;;;;;5014480;28;20041;-70
2024/03/26 10:27:08;;;;;;;5.00;2.50;;;16.30;68.40;;;;;;5014605;28;20048;-71
2024/03/26 10:29:36;;;;;;;2.05;1.92;;;15.90;68.60;;;;;;5014481;28;20042;-70
2024/03/26 10:32:03;;;;;;;5.43;3.25;;;15.70;69.20;;;;;;5014222;28;20089;-71
2024/03/26 10:34:32;;;;;;;7.90;2.58;;;15.80;69.20;;;;;;5014391;28;20060;-70
2024/03/26 10:37:01;;;;;;;3.97;3.58;;;15.70;69.30;;;;;;4981975;28;20042;-71
2024/03/26 10:39:32;;;;;;;3.80;3.08;;;15.30;68.80;;;;;;5014127;28;20041;-70
2024/03/26 10:42:00;;;;;;;3.80;3.38;;;15.00;69.60;;;;;;4997798;28;20037;-71
2024/03/26 10:44:27;;;;;;;4.10;2.83;;;14.90;69.60;;;;;;5014293;28;20038;-71
2024/03/26 10:46:53;;;;;;;3.15;2.92;;;15.10;70.20;;;;;;5013918;28;20054;-71
2024/03/26 10:49:20;;;;;;;5.05;2.22;;;15.40;70.40;;;;;;5014242;28;20045;-71
2024/03/26 10:51:48;;;;;;;6.43;2.95;;;16.00;69.00;;;;;;5013974;28;20093;-71
2024/03/26 10:54:15;;;;;;;4.90;3.65;;;16.30;68.50;;;;;;5013603;28;20376;-70
2024/03/26 10:56:42;;;;;;;4.25;2.55;;;16.20;68.70;;;;;;5014065;28;20487;-71
2024/03/26 10:59:08;;;;;;;3.28;2.53;;;16.40;67.90;;;;;;4997620;28;20034;-71
2024/03/26 11:01:35;;;;;;;3.78;2.70;;;16.50;68.60;;;;;;4981459;28;20546;-71
2024/03/26 11:04:01;;;;;;;5.57;3.50;;;16.70;68.50;;;;;;4981156;28;20061;-71
2024/03/26 11:06:30;;;;;;;3.60;2.40;;;17.00;67.20;;;;;;5013855;28;20034;-71
2024/03/26 11:09:05;;;;;;;4.28;2.55;;;16.90;68.20;;;;;;5013580;28;20502;-70
2024/03/26 11:11:35;;;;;;;3.55;3.00;;;17.10;67.20;;;;;;4997408;28;20488;-71
2024/03/26 11:14:04;;;;;;;5.43;2.58;;;17.10;67.30;;;;;;5013433;28;20072;-71
2024/03/26 11:16:39;;;;;;;5.25;3.60;;;16.70;67.10;;;;;;4997391;28;20403;-71
2024/03/26 11:19:16;;;;;;;4.43;3.50;;;16.50;67.50;;;;;;5013296;28;20050;-71
2024/03/26 11:21:42;;;;;;;2.65;1.95;;;16.40;67.70;;;;;;4997272;28;20089;-71
2024/03/26 11:24:40;;;;;;;2.38;2.10;;;16.30;68.60;;;;;;5013133;28;20068;-70
2024/03/26 11:27:07;;;;;;;2.55;2.35;;;16.30;68.60;;;;;;4997254;28;20038;-70
2024/03/26 11:29:35;;;;;;;4.10;2.55;;;16.10;68.60;;;;;;4997151;28;20034;-70
2024/03/26 11:32:01;;;;;;;3.90;2.55;;;15.90;69.00;;;;;;5013133;28;20049;-70
2024/03/26 11:34:30;;;;;;;3.85;2.80;;;15.70;68.50;;;;;;5013282;28;20057;-70
2024/03/26 11:36:57;;;;;;;3.40;3.10;;;15.50;68.70;;;;;;4996746;28;20046;-70
2024/03/26 11:39:25;;;;;;;3.95;2.85;;;15.20;68.90;;;;;;5013353;28;20042;-70
2024/03/26 11:41:51;;;;;;;4.10;2.67;;;14.90;69.90;;;;;;4996755;28;20056;-70
2024/03/26 11:44:17;;;;;;;3.38;1.70;;;14.80;70.60;;;;;;5013172;28;20034;-70
2024/03/26 11:46:47;;;;;;;4.18;2.53;;;15.00;70.30;;;;;;4999461;28;20045;-70
2024/03/26 11:49:13;;;;;;;4.47;3.00;;;15.30;70.20;;;;;;5011002;28;20046;-70
2024/03/26 11:51:40;;;;;;;2.83;2.53;;;15.40;69.80;;;;;;4979339;28;20475;-70
2024/03/26 11:54:08;;;;;;;3.15;2.63;;;15.40;69.60;;;;;;5011490;28;20041;-70
2024/03/26 11:56:34;;;;;;;2.58;2.38;;;15.20;69.80;;;;;;4979181;28;20054;-70
2024/03/26 11:59:02;;;;;;;2.97;2.55;;;15.10;69.60;;;;;;4995019;28;20450;-70
2024/03/26 12:01:28;;;;;;;3.90;3.50;;;15.00;70.70;;;;;;4995400;28;20045;-70
2024/03/26 12:04:01;;;;;;;1.92;1.73;;;14.90;71.10;;;;;;5011745;28;20048;-70
2024/03/26 12:06:28;;;;;;;2.60;2.13;;;14.80;70.80;;;;;;5011768;28;20521;-70
2024/03/26 12:08:58;;;;;;;2.83;2.53;;;15.00;70.80;;;;;;5012373;28;20038;-70
2024/03/26 12:11:25;;;;;;;5.28;2.55;;;14.80;71.10;;;;;;4976762;28;20043;-70
2024/03/26 12:13:52;;;;;;;5.15;3.95;;;14.70;71.60;;;;;;5006456;28;20096;-70
2024/03/26 12:16:26;;;;;;;4.30;2.58;;;14.60;71.20;;;;;;4995960;28;20038;-70
2024/03/26 12:18:53;;;;;;;4.93;2.83;;;14.30;71.90;;;;;;4995466;28;20046;-70
2024/03/26 12:21:21;;;;;;;4.70;3.33;;;14.30;71.60;;;;;;4979538;28;20054;-70
2024/03/26 12:23:56;;;;;;;3.83;3.05;;;14.40;71.60;;;;;;4979791;28;20046;-70
2024/03/26 12:26:22;;;;;;;1.83;1.67;;;14.40;71.80;;;;;;4995799;28;20042;-70
2024/03/26 12:28:50;;;;;;;3.50;3.03;;;14.50;71.40;;;;;;4979396;28;20484;-69
2024/03/26 12:31:17;;;;;;;3.63;2.90;;;14.40;71.80;;;;;;4979265;28;20038;-70
2024/03/26 12:33:57;;;;;;;2.95;2.47;;;14.40;71.30;;;;;;4979320;28;20061;-70
2024/03/26 12:36:24;;;;;;;4.07;3.25;;;14.30;71.70;;;;;;4995580;28;20046;-70
2024/03/26 12:38:50;;;;;;;2.22;1.90;;;14.30;72.30;;;;;;4995498;28;20126;-70
2024/03/26 12:41:16;;;;;;;5.45;3.33;;;14.20;72.70;;;;;;5011840;28;20108;-70
2024/03/26 12:43:42;;;;;;;2.70;2.15;;;14.30;72.40;;;;;;4979456;28;20578;-70
2024/03/26 12:46:08;;;;;;;3.08;2.60;;;14.20;72.60;;;;;;5011811;28;20395;-70
2024/03/26 12:48:34;;;;;;;5.07;2.50;;;14.20;72.70;;;;;;4995530;28;20072;-70
2024/03/26 12:51:00;;;;;;;3.42;3.13;;;14.50;72.60;;;;;;4995537;28;20038;-70